createdAt,value
2023-03-31T00:01:07.764Z,100014.91
2023-03-31T00:03:39.036Z,100008.72
2023-03-31T00:06:06.249Z,99998.50
2023-03-31T00:08:36.338Z,99987.72
2023-03-31T00:11:07.670Z,99993.09
2023-03-31T00:13:36.233Z,99978.53
2023-03-31T00:16:09.574Z,99980.19
2023-03-31T00:18:38.059Z,99977.59
2023-03-31T00:21:25.321Z,99968.72
2023-03-31T00:23:59.187Z,99965.72
2023-03-31T00:26:26.481Z,99962.75
2023-03-31T00:28:54.497Z,99949.53
2023-03-31T00:31:23.642Z,99944.25
2023-03-31T00:33:51.038Z,99938.28
2023-03-31T00:36:27.498Z,99942.69
2023-03-31T00:39:11.864Z,99946.44
2023-03-31T00:41:39.848Z,99944.41
2023-03-31T00:44:23.244Z,99929.63
2023-03-31T00:46:53.406Z,99930.44
2023-03-31T00:49:38.362Z,99919.88
2023-03-31T00:52:22.080Z,99918.66
2023-03-31T00:54:53.961Z,99911.22
2023-03-31T00:57:22.970Z,99911.03
2023-03-31T00:59:59.176Z,99905.34
2023-03-31T01:02:26.686Z,99904.72
2023-03-31T01:05:00.805Z,99898.72
2023-03-31T01:07:54.540Z,99892.47
2023-03-31T01:10:22.759Z,99887.91
2023-03-31T01:12:55.819Z,99891.84
2023-03-31T01:15:23.728Z,99883.75
2023-03-31T01:17:56.174Z,99875.41
2023-03-31T01:20:49.670Z,99879.66
2023-03-31T01:23:45.968Z,99863.84
2023-03-31T01:26:43.210Z,99865.72
2023-03-31T01:29:52.371Z,99861.91
2023-03-31T01:32:37.882Z,99860.84
2023-03-31T01:35:33.024Z,99856.25
2023-03-31T01:38:32.743Z,99858.06
2023-03-31T01:41:18.803Z,99857.03
2023-03-31T01:43:55.220Z,99852.25
2023-03-31T01:46:37.285Z,99834.44
2023-03-31T01:49:35.517Z,99836.03
2023-03-31T01:52:21.880Z,99827.94
2023-03-31T01:54:52.952Z,99811.34
2023-03-31T01:57:28.632Z,99812.41
2023-03-31T02:00:11.664Z,99807.53
2023-03-31T02:03:04.461Z,99809.22
2023-03-31T02:05:42.525Z,99814.56
2023-03-31T02:08:20.169Z,99806.50
2023-03-31T02:10:49.413Z,99796.47
2023-03-31T02:13:19.445Z,99795.59
2023-03-31T02:15:52.041Z,99789.69
2023-03-31T02:18:26.300Z,99790.22
2023-03-31T02:20:57.659Z,99788.59
2023-03-31T02:23:31.758Z,99787.81
2023-03-31T02:26:14.105Z,99785.91
2023-03-31T02:28:45.382Z,99773.56
2023-03-31T02:31:24.802Z,99768.16
2023-03-31T02:33:53.173Z,99755.78
2023-03-31T02:36:21.899Z,99763.28
2023-03-31T02:38:57.167Z,99754.63
2023-03-31T02:41:24.643Z,99756.25
2023-03-31T02:43:56.568Z,99754.06
2023-03-31T02:46:25.509Z,99733.09
2023-03-31T02:48:56.784Z,99726.13
2023-03-31T02:51:42.373Z,99720.53
2023-03-31T02:54:18.275Z,99726.13
2023-03-31T02:57:25.140Z,99701.81
2023-03-31T03:00:37.518Z,99697.81
2023-03-31T03:03:36.364Z,99688.22
2023-03-31T03:06:24.508Z,99680.56
2023-03-31T03:09:22.815Z,99673.59
2023-03-31T03:12:08.122Z,99670.91
2023-03-31T03:14:54.867Z,99663.63
2023-03-31T03:17:42.055Z,99659.88
2023-03-31T03:20:10.589Z,99656.84
2023-03-31T03:22:38.967Z,99641.88
2023-03-31T03:25:07.455Z,99641.31
2023-03-31T03:27:35.959Z,99625.97
2023-03-31T03:30:06.855Z,99620.38
2023-03-31T03:32:42.036Z,99611.44
2023-03-31T03:35:10.197Z,99602.13
2023-03-31T03:37:39.105Z,99594.06
2023-03-31T03:40:06.596Z,99569.94
2023-03-31T03:42:34.449Z,99577.28
2023-03-31T03:45:01.659Z,99550.78
2023-03-31T03:47:28.987Z,99544.59
2023-03-31T03:49:56.192Z,99539.44
2023-03-31T03:52:23.199Z,99534.03
2023-03-31T03:54:50.440Z,99518.69
2023-03-31T03:57:21.816Z,99517.75
2023-03-31T03:59:49.014Z,99512.69
2023-03-31T04:02:16.385Z,99535.66
2023-03-31T04:04:43.203Z,99551.69
2023-03-31T04:07:09.903Z,99550.16
2023-03-31T04:09:37.074Z,99537.63
2023-03-31T04:12:04.855Z,99540.44
2023-03-31T04:14:32.863Z,99538.16
2023-03-31T04:16:59.926Z,99545.63
2023-03-31T04:19:27.933Z,99539.66
2023-03-31T04:22:02.840Z,99537.66
2023-03-31T04:24:33.015Z,99516.50
2023-03-31T04:27:03.110Z,99512.25
2023-03-31T04:29:33.609Z,99508.56
2023-03-31T04:32:01.294Z,99509.19
2023-03-31T04:34:36.495Z,99494.06
2023-03-31T04:37:04.322Z,99494.84
2023-03-31T04:39:31.471Z,99507.00
2023-03-31T04:42:00.737Z,99497.09
2023-03-31T04:44:30.772Z,99497.88
2023-03-31T04:46:59.068Z,99503.03
2023-03-31T04:49:25.768Z,99484.91
2023-03-31T04:51:52.769Z,99486.66
2023-03-31T04:54:19.596Z,99479.09
2023-03-31T04:56:46.541Z,99473.56
2023-03-31T04:59:13.334Z,99484.16
2023-03-31T05:01:45.884Z,99486.25
2023-03-31T05:04:13.663Z,99486.75
2023-03-31T05:06:41.293Z,99486.16
2023-03-31T05:09:09.954Z,99489.34
2023-03-31T05:11:38.620Z,99490.84
2023-03-31T05:14:09.249Z,99471.22
2023-03-31T05:16:39.448Z,99473.97
2023-03-31T05:19:06.617Z,99476.75
2023-03-31T05:21:37.508Z,99472.56
2023-03-31T05:24:07.414Z,99468.25
2023-03-31T05:26:35.181Z,99465.38
2023-03-31T05:29:02.496Z,99461.97
2023-03-31T05:31:30.021Z,99447.19
2023-03-31T05:33:57.418Z,99437.56
2023-03-31T05:36:27.543Z,99421.69
2023-03-31T05:38:54.630Z,99428.59
2023-03-31T05:41:23.514Z,99421.19
2023-03-31T05:43:50.792Z,99424.81
2023-03-31T05:46:18.713Z,99426.69
2023-03-31T05:48:46.017Z,99425.44
2023-03-31T05:51:13.604Z,99424.63
2023-03-31T05:53:42.299Z,99411.13
2023-03-31T05:56:09.866Z,99408.97
2023-03-31T05:58:38.105Z,99398.34
2023-03-31T06:01:08.457Z,99403.19
2023-03-31T06:03:39.106Z,99380.78
2023-03-31T06:06:09.410Z,99356.81
2023-03-31T06:08:38.489Z,99351.19
2023-03-31T06:11:14.670Z,99343.16
2023-03-31T06:13:43.387Z,99342.47
2023-03-31T06:16:12.716Z,99330.28
2023-03-31T06:18:42.131Z,99316.94
2023-03-31T06:21:16.395Z,99313.06
2023-03-31T06:23:46.988Z,99304.75
2023-03-31T06:26:19.059Z,99302.97
2023-03-31T06:28:47.170Z,99291.19
2023-03-31T06:31:21.198Z,99276.59
2023-03-31T06:33:48.847Z,99276.16
2023-03-31T06:36:18.856Z,99292.91
2023-03-31T06:38:46.599Z,99296.41
2023-03-31T06:41:18.900Z,99304.03
2023-03-31T06:43:46.730Z,99308.25
2023-03-31T06:46:16.878Z,99303.53
2023-03-31T06:48:46.103Z,99301.22
2023-03-31T06:51:13.713Z,99291.22
2023-03-31T06:53:42.261Z,99294.44
2023-03-31T06:56:11.651Z,99293.03
2023-03-31T06:58:41.409Z,99281.56
2023-03-31T07:01:12.207Z,99289.97
2023-03-31T07:03:43.380Z,99279.91
2023-03-31T07:06:14.266Z,99295.75
2023-03-31T07:08:42.487Z,99298.31
2023-03-31T07:11:12.799Z,99286.78
2023-03-31T07:13:39.808Z,99290.16
2023-03-31T07:16:08.468Z,99286.94
2023-03-31T07:18:36.911Z,99286.78
2023-03-31T07:21:09.001Z,99293.06
2023-03-31T07:23:37.278Z,99286.41
2023-03-31T07:26:04.684Z,99287.03
2023-03-31T07:28:35.328Z,99298.69
2023-03-31T07:31:14.572Z,99275.50
2023-03-31T07:33:42.077Z,99276.47
2023-03-31T07:36:13.282Z,99273.44
2023-03-31T07:38:43.429Z,99261.69
2023-03-31T07:41:14.740Z,99263.44
2023-03-31T07:43:42.423Z,99266.91
2023-03-31T07:46:21.854Z,99277.69
2023-03-31T07:48:49.826Z,99273.50
2023-03-31T07:51:21.886Z,99283.34
2023-03-31T07:53:53.069Z,99280.09
2023-03-31T07:56:22.294Z,99279.78
2023-03-31T07:58:49.492Z,99283.41
2023-03-31T08:01:19.058Z,99292.97
2023-03-31T08:03:51.046Z,99287.09
2023-03-31T08:06:19.962Z,99294.13
2023-03-31T08:08:46.684Z,99302.00
2023-03-31T08:11:14.192Z,99297.50
2023-03-31T08:13:41.083Z,99294.56
2023-03-31T08:16:08.205Z,99290.56
2023-03-31T08:18:35.991Z,99308.28
2023-03-31T08:21:06.666Z,99297.16
2023-03-31T08:23:36.959Z,99298.47
2023-03-31T08:26:16.395Z,99301.34
2023-03-31T08:28:46.114Z,99306.09
2023-03-31T08:31:16.584Z,99298.31
2023-03-31T08:33:44.167Z,99290.03
2023-03-31T08:36:12.313Z,99303.19
2023-03-31T08:38:45.996Z,99282.34
2023-03-31T08:41:28.433Z,99277.94
2023-03-31T08:43:57.384Z,99277.94
2023-03-31T08:46:32.947Z,99298.25
2023-03-31T08:49:01.463Z,99301.25
2023-03-31T08:51:34.304Z,99290.34
2023-03-31T08:54:17.988Z,99289.06
2023-03-31T08:56:49.433Z,99271.16
2023-03-31T08:59:36.390Z,99264.75
2023-03-31T09:02:36.382Z,99269.09
2023-03-31T09:05:11.562Z,99269.47
2023-03-31T09:08:06.456Z,99263.84
2023-03-31T09:10:43.820Z,99292.09
2023-03-31T09:13:19.614Z,99299.59
2023-03-31T09:15:58.621Z,99296.13
2023-03-31T09:18:38.051Z,99317.47
2023-03-31T09:21:08.850Z,99295.56
2023-03-31T09:23:43.057Z,99282.63
2023-03-31T09:26:23.477Z,99282.41
2023-03-31T09:28:53.197Z,99274.47
2023-03-31T09:31:21.915Z,99296.69
2023-03-31T09:33:52.894Z,99290.91
2023-03-31T09:36:24.696Z,99293.38
2023-03-31T09:38:51.915Z,99267.19
2023-03-31T09:41:20.256Z,99272.31
2023-03-31T09:43:49.669Z,99275.97
2023-03-31T09:46:19.613Z,99270.41
2023-03-31T09:49:00.613Z,99257.50
2023-03-31T09:51:32.777Z,99239.63
2023-03-31T09:54:22.809Z,99244.53
2023-03-31T09:56:55.336Z,99228.72
2023-03-31T09:59:38.921Z,99228.31
2023-03-31T10:02:19.551Z,99212.41
2023-03-31T10:04:46.756Z,99195.81
2023-03-31T10:07:13.950Z,99202.94
2023-03-31T10:09:42.843Z,99227.13
2023-03-31T10:12:21.331Z,99250.13
2023-03-31T10:14:50.611Z,99255.56
2023-03-31T10:17:20.982Z,99247.31
2023-03-31T10:20:06.529Z,99229.25
2023-03-31T10:22:35.756Z,99222.50
2023-03-31T10:25:28.947Z,99197.50
2023-03-31T10:27:57.433Z,99180.66
2023-03-31T10:30:28.913Z,99184.47
2023-03-31T10:32:56.505Z,99163.06
2023-03-31T10:35:34.998Z,99183.66
2023-03-31T10:38:12.430Z,99165.03
2023-03-31T10:40:43.747Z,99173.53
2023-03-31T10:43:16.935Z,99167.47
2023-03-31T10:45:51.551Z,99160.34
2023-03-31T10:48:33.465Z,99151.44
2023-03-31T10:51:18.738Z,99166.06
2023-03-31T10:53:48.462Z,99169.16
2023-03-31T10:56:21.634Z,99170.63
2023-03-31T10:59:02.002Z,99200.31
2023-03-31T11:01:52.857Z,99192.09
2023-03-31T11:04:47.895Z,99195.22
2023-03-31T11:07:22.588Z,99208.59
2023-03-31T11:10:08.289Z,99206.63
2023-03-31T11:12:51.921Z,99213.94
2023-03-31T11:15:19.260Z,99215.50
2023-03-31T11:18:31.491Z,99195.25
2023-03-31T11:21:26.652Z,99178.91
2023-03-31T11:24:24.457Z,99144.06
2023-03-31T11:27:09.133Z,99179.69
2023-03-31T11:30:07.459Z,99173.72
2023-03-31T11:32:53.118Z,99176.22
2023-03-31T11:35:39.530Z,99162.56
2023-03-31T11:38:16.095Z,99157.94
2023-03-31T11:41:09.412Z,99146.84
2023-03-31T11:44:04.864Z,99147.25
2023-03-31T11:46:40.605Z,99154.13
2023-03-31T11:49:25.285Z,99145.97
2023-03-31T11:51:57.085Z,99145.91
2023-03-31T11:54:31.659Z,99152.69
2023-03-31T11:57:03.626Z,99145.19
2023-03-31T11:59:33.000Z,99155.91
2023-03-31T12:02:23.869Z,99177.22
2023-03-31T12:04:56.807Z,99177.56
2023-03-31T12:07:31.969Z,99194.78
2023-03-31T12:10:05.946Z,99183.00
2023-03-31T12:12:40.091Z,99173.22
2023-03-31T12:15:25.524Z,99161.44
2023-03-31T12:18:16.997Z,99156.75
2023-03-31T12:20:53.161Z,99146.00
2023-03-31T12:23:27.714Z,99130.63
2023-03-31T12:26:23.152Z,99112.59
2023-03-31T12:28:57.981Z,99115.63
2023-03-31T12:31:28.166Z,99103.50
2023-03-31T12:34:14.132Z,99105.34
2023-03-31T12:36:55.572Z,99113.66
2023-03-31T12:39:56.907Z,99127.13
2023-03-31T12:42:48.940Z,99116.28
2023-03-31T12:45:39.662Z,99116.16
2023-03-31T12:48:27.033Z,99106.56
2023-03-31T12:51:18.362Z,99102.81
2023-03-31T12:54:01.995Z,99106.09
2023-03-31T12:56:51.262Z,99111.38
2023-03-31T12:59:25.973Z,99090.28
2023-03-31T13:02:12.667Z,99106.72
2023-03-31T13:04:40.055Z,99103.75
2023-03-31T13:07:29.261Z,99092.75
2023-03-31T13:10:15.376Z,99101.50
2023-03-31T13:12:54.837Z,99102.84
2023-03-31T13:15:25.133Z,99101.06
2023-03-31T13:17:59.660Z,99097.53
2023-03-31T13:20:38.228Z,99101.41
2023-03-31T13:23:16.453Z,99103.00
2023-03-31T13:25:46.112Z,99094.16
2023-03-31T13:28:21.924Z,99091.69
2023-03-31T13:30:53.770Z,99094.16
2023-03-31T13:33:20.548Z,99093.53
2023-03-31T13:35:53.178Z,99089.84
2023-03-31T13:39:02.190Z,99087.53
2023-03-31T13:41:54.455Z,99076.47
2023-03-31T13:44:51.625Z,99079.75
2023-03-31T13:48:04.227Z,99068.16
2023-03-31T13:51:02.262Z,99064.91
2023-03-31T13:54:00.085Z,99073.97
2023-03-31T13:56:34.049Z,99078.03
2023-03-31T13:59:22.758Z,99081.97
2023-03-31T14:02:14.314Z,99093.41
2023-03-31T14:05:05.813Z,99086.94
2023-03-31T14:07:43.691Z,99099.28
2023-03-31T14:10:34.863Z,99072.97
2023-03-31T14:13:26.137Z,99059.28
2023-03-31T14:16:00.370Z,99080.00
2023-03-31T14:18:41.318Z,99090.78
2023-03-31T14:21:47.736Z,99071.94
2023-03-31T14:24:26.586Z,99065.78
2023-03-31T14:27:13.419Z,99049.94
2023-03-31T14:30:00.531Z,99055.44
2023-03-31T14:32:54.491Z,99041.03
2023-03-31T14:35:55.314Z,99043.44
2023-03-31T14:38:23.828Z,99050.69
2023-03-31T14:40:57.572Z,99051.50
2023-03-31T14:43:38.010Z,99049.06
2023-03-31T14:46:07.687Z,99043.31
2023-03-31T14:48:47.381Z,99046.34
2023-03-31T14:51:16.973Z,99047.78
2023-03-31T14:53:45.534Z,99039.09
2023-03-31T14:56:16.459Z,99042.28
2023-03-31T14:58:47.744Z,99051.63
2023-03-31T15:01:24.077Z,99071.06
2023-03-31T15:03:53.532Z,99079.31
2023-03-31T15:06:25.926Z,99054.31
2023-03-31T15:08:59.180Z,99063.75
2023-03-31T15:11:30.719Z,99077.09
2023-03-31T15:14:05.185Z,99066.63
2023-03-31T15:16:56.802Z,99065.94
2023-03-31T15:19:27.934Z,99049.00
2023-03-31T15:21:57.261Z,99048.16
2023-03-31T15:24:24.210Z,99049.09
2023-03-31T15:27:26.303Z,99046.50
2023-03-31T15:30:00.050Z,99055.09
2023-03-31T15:32:28.634Z,99057.59
2023-03-31T15:35:18.597Z,99058.22
2023-03-31T15:37:50.447Z,99062.34
2023-03-31T15:40:27.178Z,99060.56
2023-03-31T15:43:06.327Z,99055.91
2023-03-31T15:45:58.071Z,99064.03
2023-03-31T15:48:53.242Z,99052.78
2023-03-31T15:51:28.597Z,99079.00
2023-03-31T15:53:55.910Z,99066.28
2023-03-31T15:56:44.951Z,99061.81
2023-03-31T15:59:37.921Z,99046.44
2023-03-31T16:02:18.116Z,99043.44
2023-03-31T16:04:49.396Z,99039.94
2023-03-31T16:07:23.980Z,99050.56
2023-03-31T16:10:22.263Z,99044.03
2023-03-31T16:12:52.461Z,99045.28
2023-03-31T16:15:30.332Z,99046.22
2023-03-31T16:18:03.559Z,99054.91
2023-03-31T16:20:40.375Z,99049.50
2023-03-31T16:23:16.970Z,99057.59
2023-03-31T16:25:44.935Z,99056.16
2023-03-31T16:28:28.755Z,99055.25
2023-03-31T16:30:55.697Z,99051.59
2023-03-31T16:33:24.625Z,99046.66
2023-03-31T16:35:56.243Z,99053.28
2023-03-31T16:38:25.809Z,99053.13
2023-03-31T16:40:55.200Z,99051.50
2023-03-31T16:43:28.047Z,99056.00
2023-03-31T16:45:57.763Z,99047.72
2023-03-31T16:48:28.439Z,99056.56
2023-03-31T16:50:57.761Z,99057.06
2023-03-31T16:53:43.070Z,99061.50
2023-03-31T16:56:11.969Z,99058.09
2023-03-31T16:58:39.789Z,99061.63
2023-03-31T17:01:08.551Z,99061.28
2023-03-31T17:03:37.774Z,99067.31
2023-03-31T17:06:12.087Z,99045.09
2023-03-31T17:08:40.035Z,99056.78
2023-03-31T17:11:11.961Z,99071.94
2023-03-31T17:13:42.713Z,99069.34
2023-03-31T17:16:19.301Z,99062.97
2023-03-31T17:18:54.347Z,99068.25
2023-03-31T17:21:22.017Z,99059.53
2023-03-31T17:23:49.961Z,99077.31
2023-03-31T17:26:17.849Z,99071.72
2023-03-31T17:28:45.655Z,99069.97
2023-03-31T17:31:15.005Z,99074.38
2023-03-31T17:33:43.689Z,99074.56
2023-03-31T17:36:12.062Z,99076.75
2023-03-31T17:38:40.137Z,99087.97
2023-03-31T17:41:10.816Z,99086.00
2023-03-31T17:43:38.218Z,99097.00
2023-03-31T17:46:13.483Z,99093.19
2023-03-31T17:48:41.669Z,99100.97
2023-03-31T17:51:16.126Z,99097.59
2023-03-31T17:53:45.885Z,99106.78
2023-03-31T17:56:13.236Z,99109.56
2023-03-31T17:58:41.415Z,99093.31
2023-03-31T18:01:09.694Z,99105.16
2023-03-31T18:03:36.702Z,99103.75
2023-03-31T18:06:12.772Z,99114.31
2023-03-31T18:08:46.275Z,99115.59
2023-03-31T18:11:14.576Z,99115.06
2023-03-31T18:13:45.361Z,99116.56
2023-03-31T18:16:14.949Z,99119.94
2023-03-31T18:18:42.558Z,99128.66
2023-03-31T18:21:12.060Z,99129.28
2023-03-31T18:23:40.545Z,99125.91
2023-03-31T18:26:09.668Z,99134.47
2023-03-31T18:28:44.222Z,99140.19
2023-03-31T18:31:12.369Z,99130.34
2023-03-31T18:33:40.806Z,99149.16
2023-03-31T18:36:19.702Z,99164.59
2023-03-31T18:38:48.626Z,99149.69
2023-03-31T18:41:19.286Z,99149.19
2023-03-31T18:43:47.818Z,99156.16
2023-03-31T18:46:14.670Z,99153.84
2023-03-31T18:48:42.161Z,99147.09
2023-03-31T18:51:11.178Z,99159.22
2023-03-31T18:53:38.303Z,99151.28
2023-03-31T18:56:06.433Z,99146.72
2023-03-31T18:58:33.592Z,99155.06
2023-03-31T19:01:01.404Z,99145.13
2023-03-31T19:03:28.386Z,99145.00
2023-03-31T19:06:10.097Z,99151.28
2023-03-31T19:08:37.952Z,99153.06
2023-03-31T19:11:12.268Z,99157.88
2023-03-31T19:13:42.054Z,99162.75
2023-03-31T19:16:09.585Z,99173.00
2023-03-31T19:18:36.642Z,99172.38
2023-03-31T19:21:06.385Z,99164.44
2023-03-31T19:23:34.417Z,99168.41
2023-03-31T19:26:03.091Z,99165.53
2023-03-31T19:28:31.626Z,99162.41
2023-03-31T19:30:59.386Z,99153.56
2023-03-31T19:33:26.802Z,99163.56
2023-03-31T19:35:54.015Z,99171.63
2023-03-31T19:38:22.217Z,99171.34
2023-03-31T19:40:54.940Z,99169.94
2023-03-31T19:43:24.774Z,99159.38
2023-03-31T19:45:54.247Z,99170.41
2023-03-31T19:48:21.692Z,99182.03
2023-03-31T19:50:56.081Z,99184.34
2023-03-31T19:53:24.606Z,99179.78
2023-03-31T19:56:03.174Z,99176.03
2023-03-31T19:58:31.181Z,99175.03
2023-03-31T20:00:58.166Z,99166.25
2023-03-31T20:03:27.424Z,99169.59
2023-03-31T20:06:04.943Z,99155.31
2023-03-31T20:08:32.559Z,99160.97
2023-03-31T20:11:03.037Z,99165.69
2023-03-31T20:13:32.589Z,99165.69
2023-03-31T20:16:01.952Z,99163.06
2023-03-31T20:18:29.542Z,99168.03
2023-03-31T20:21:08.266Z,99161.31
2023-03-31T20:23:38.255Z,99165.06
2023-03-31T20:26:06.805Z,99164.06
2023-03-31T20:28:35.082Z,99160.03
2023-03-31T20:31:14.536Z,99161.09
2023-03-31T20:33:46.081Z,99160.72
2023-03-31T20:36:19.240Z,99167.59
2023-03-31T20:38:48.539Z,99164.91
2023-03-31T20:41:15.884Z,99175.25
2023-03-31T20:43:43.556Z,99179.16
2023-03-31T20:46:11.495Z,99174.28
2023-03-31T20:48:42.704Z,99171.22
2023-03-31T20:53:43.794Z,99179.31
2023-03-31T20:56:12.674Z,99172.50
2023-03-31T20:58:42.478Z,99180.06
2023-03-31T21:01:11.722Z,99189.16
2023-03-31T21:03:45.323Z,99173.16
2023-03-31T21:06:15.103Z,99188.25
2023-03-31T21:08:43.121Z,99187.81
2023-03-31T21:11:10.160Z,99183.66
2023-03-31T21:13:37.986Z,99181.34
2023-03-31T21:16:07.024Z,99180.28
2023-03-31T21:18:37.733Z,99184.31
2023-03-31T21:21:10.914Z,99191.00
2023-03-31T21:23:38.625Z,99182.78
2023-03-31T21:26:09.564Z,99192.94
2023-03-31T21:28:38.020Z,99197.28
2023-03-31T21:31:06.690Z,99192.94
2023-03-31T21:33:35.066Z,99196.72
2023-03-31T21:36:02.450Z,99180.06
2023-03-31T21:38:30.053Z,99185.41
2023-03-31T21:40:57.572Z,99180.06
2023-03-31T21:43:26.146Z,99176.28
2023-03-31T21:45:58.502Z,99179.41
2023-03-31T21:48:28.031Z,99183.66
2023-03-31T21:50:57.846Z,99180.13
2023-03-31T21:53:25.053Z,99181.47
2023-03-31T21:55:55.369Z,99178.91
2023-03-31T21:58:30.378Z,99182.66
2023-03-31T22:01:06.180Z,99178.00
2023-03-31T22:03:41.124Z,99188.88
2023-03-31T22:06:09.455Z,99186.69
2023-03-31T22:08:39.850Z,99183.50
2023-03-31T22:11:09.463Z,99194.16
2023-03-31T22:13:36.982Z,99191.50
2023-03-31T22:16:18.428Z,99201.72
2023-03-31T22:18:45.853Z,99196.03
2023-03-31T22:21:33.664Z,99201.06
2023-03-31T22:24:02.254Z,99211.19
2023-03-31T22:26:31.303Z,99202.25
2023-03-31T22:29:00.053Z,99195.50
2023-03-31T22:31:28.367Z,99195.94
2023-03-31T22:33:56.364Z,99193.81
2023-03-31T22:36:27.243Z,99192.81
2023-03-31T22:38:55.014Z,99191.91
2023-03-31T22:41:22.754Z,99196.25
2023-03-31T22:43:51.538Z,99203.50
2023-03-31T22:46:18.477Z,99200.59
2023-03-31T22:48:49.727Z,99204.31
2023-03-31T22:51:17.826Z,99210.78
2023-03-31T22:54:01.181Z,99207.22
2023-03-31T22:56:28.354Z,99213.34
2023-03-31T22:58:57.491Z,99213.78
2023-03-31T23:01:24.572Z,99213.34
2023-03-31T23:03:52.407Z,99205.03
2023-03-31T23:06:25.529Z,99213.97
2023-03-31T23:08:56.423Z,99220.41
2023-03-31T23:11:24.673Z,99225.97
2023-03-31T23:13:55.277Z,99226.13
2023-03-31T23:16:24.626Z,99224.94
2023-03-31T23:18:57.973Z,99223.28
2023-03-31T23:21:27.741Z,99213.63
2023-03-31T23:24:01.412Z,99227.03
2023-03-31T23:26:30.872Z,99217.19
2023-03-31T23:28:59.211Z,99207.44
2023-03-31T23:31:34.190Z,99222.69
2023-03-31T23:34:03.817Z,99213.72
2023-03-31T23:36:38.343Z,99212.53
2023-03-31T23:39:10.541Z,99209.84
2023-03-31T23:41:47.095Z,99207.69
2023-03-31T23:44:14.510Z,99215.28
2023-03-31T23:46:47.828Z,99199.69
2023-03-31T23:49:22.889Z,99209.84
2023-03-31T23:51:49.932Z,99207.47
2023-03-31T23:54:22.075Z,99203.31
2023-03-31T23:56:53.056Z,99207.50
2023-03-31T23:59:20.663Z,99200.91
